Time;durP1;ratioP1;P1;durP2;ratioP2;P2;SDS_P1;SDS_P2;PMS_P1;PMS_P2;Temp;Humidity;BMP_temperature;BMP_pressure;BME280_temperature;BME280_humidity;BME280_pressure;Samples;Min_cycle;Max_cycle;Signal;HPM_P1;HPM_P2
2023/03/04 00:00:25;;;;;;;18.65;2.97;;;;;;;;;;5163327;27;20055;-62
2023/03/04 00:02:51;;;;;;;12.15;2.20;;;;;;;;;;5166049;27;20492;-63
2023/03/04 00:05:18;;;;;;;8.45;2.20;;;;;;;;;;5155627;27;20847;-61
2023/03/04 00:07:44;;;;;;;11.98;3.00;;;;;;;;;;5166464;27;20050;-61
2023/03/04 00:10:11;;;;;;;13.38;2.28;;;;;;;;;;5150269;27;20078;-61
2023/03/04 00:12:37;;;;;;;11.55;3.30;;;;;;;;;;5154739;27;20130;-60
2023/03/04 00:15:04;;;;;;;11.52;2.30;;;;;;;;;;5159479;27;20077;-61
2023/03/04 00:17:30;;;;;;;13.25;2.65;;;;;;;;;;5158281;27;20058;-62
2023/03/04 00:19:57;;;;;;;12.13;2.47;;;;;;;;;;5160945;27;20474;-62
2023/03/04 00:22:23;;;;;;;15.38;2.28;;;;;;;;;;5161846;27;20374;-61
2023/03/04 00:24:49;;;;;;;12.27;2.05;;;;;;;;;;5139473;27;20054;-62
2023/03/04 00:27:16;;;;;;;13.10;2.40;;;;;;;;;;5144771;27;20480;-61
2023/03/04 00:29:42;;;;;;;17.40;2.90;;;;;;;;;;5145226;27;20051;-60
2023/03/04 00:32:08;;;;;;;8.35;2.17;;;;;;;;;;5153136;27;20067;-62
2023/03/04 00:34:35;;;;;;;11.20;1.80;;;;;;;;;;5160304;27;20078;-61
2023/03/04 00:37:02;;;;;;;7.32;2.15;;;;;;;;;;5165433;27;20042;-63
2023/03/04 00:39:29;;;;;;;13.75;1.85;;;;;;;;;;5166596;27;20047;-61
2023/03/04 00:41:55;;;;;;;12.48;3.47;;;;;;;;;;5166046;27;20042;-61
2023/03/04 00:44:21;;;;;;;17.30;3.30;;;;;;;;;;5162389;27;20038;-62
2023/03/04 00:46:48;;;;;;;12.40;2.20;;;;;;;;;;5159116;27;20039;-63
2023/03/04 00:49:14;;;;;;;11.27;1.85;;;;;;;;;;5164660;27;20118;-63
2023/03/04 00:51:40;;;;;;;8.82;1.75;;;;;;;;;;5163724;27;20054;-61
2023/03/04 00:54:07;;;;;;;14.23;3.00;;;;;;;;;;5148264;27;20051;-62
2023/03/04 00:56:33;;;;;;;5.63;1.42;;;;;;;;;;5143447;27;20497;-62
2023/03/04 00:59:00;;;;;;;14.27;2.30;;;;;;;;;;5149059;27;20049;-62
2023/03/04 01:01:27;;;;;;;14.30;2.33;;;;;;;;;;5163887;27;20111;-62
2023/03/04 01:03:54;;;;;;;9.82;1.77;;;;;;;;;;5166801;27;20044;-63
2023/03/04 01:06:20;;;;;;;11.98;2.10;;;;;;;;;;5152398;27;20516;-62
2023/03/04 01:08:47;;;;;;;13.35;1.77;;;;;;;;;;5155561;27;20055;-61
2023/03/04 01:11:13;;;;;;;4.93;1.63;;;;;;;;;;5153955;27;20049;-61
2023/03/04 01:13:39;;;;;;;17.80;2.28;;;;;;;;;;5155835;27;20076;-62
2023/03/04 01:16:06;;;;;;;10.20;1.65;;;;;;;;;;5152125;27;20051;-61
2023/03/04 01:18:32;;;;;;;14.02;1.77;;;;;;;;;;5158701;27;20054;-63
2023/03/04 01:20:59;;;;;;;10.68;2.72;;;;;;;;;;5155889;27;20047;-63
2023/03/04 01:23:25;;;;;;;10.38;1.90;;;;;;;;;;5157229;27;20114;-61
2023/03/04 01:25:52;;;;;;;14.75;1.88;;;;;;;;;;5164278;27;20075;-62
2023/03/04 01:28:18;;;;;;;6.88;1.92;;;;;;;;;;5163123;27;20046;-63
2023/03/04 01:30:44;;;;;;;12.63;1.73;;;;;;;;;;5156486;27;20396;-62
2023/03/04 01:33:11;;;;;;;10.93;2.42;;;;;;;;;;5153658;27;20054;-60
2023/03/04 01:35:37;;;;;;;9.07;1.48;;;;;;;;;;5162984;27;20051;-63
2023/03/04 01:38:04;;;;;;;11.52;2.47;;;;;;;;;;5148402;27;20047;-62
2023/03/04 01:40:30;;;;;;;12.65;1.73;;;;;;;;;;5144912;27;20046;-62
2023/03/04 01:42:57;;;;;;;10.57;2.20;;;;;;;;;;5155207;27;20096;-61
2023/03/04 01:45:23;;;;;;;13.13;1.90;;;;;;;;;;5159992;27;20203;-61
2023/03/04 01:47:50;;;;;;;8.02;1.58;;;;;;;;;;5159802;27;20570;-62
2023/03/04 01:50:22;;;;;;;12.88;1.90;;;;;;;;;;5145683;27;20043;-61
2023/03/04 01:52:49;;;;;;;10.35;1.77;;;;;;;;;;5149142;27;20074;-61
2023/03/04 01:55:17;;;;;;;7.13;1.50;;;;;;;;;;5148442;27;20057;-61
2023/03/04 01:57:44;;;;;;;16.05;2.38;;;;;;;;;;5163214;27;20104;-63
2023/03/04 02:00:16;;;;;;;9.23;1.40;;;;;;;;;;5142777;27;20096;-63
2023/03/04 02:02:43;;;;;;;13.50;1.90;;;;;;;;;;5164848;27;20059;-61
2023/03/04 02:05:09;;;;;;;12.65;2.70;;;;;;;;;;5159807;27;20138;-62
2023/03/04 02:07:36;;;;;;;24.42;2.17;;;;;;;;;;5144716;27;20093;-61
2023/03/04 02:10:03;;;;;;;9.18;2.22;;;;;;;;;;5157844;27;20051;-61
2023/03/04 02:12:29;;;;;;;7.65;1.52;;;;;;;;;;5145237;27;20879;-61
2023/03/04 02:14:55;;;;;;;7.90;1.55;;;;;;;;;;5153132;27;20167;-63
2023/03/04 02:17:25;;;;;;;11.95;2.70;;;;;;;;;;5147523;27;20528;-61
2023/03/04 02:20:06;;;;;;;12.38;1.80;;;;;;;;;;5161604;27;20050;-62
2023/03/04 02:22:34;;;;;;;10.32;1.70;;;;;;;;;;5146775;27;20079;-62
2023/03/04 02:25:05;;;;;;;9.60;1.70;;;;;;;;;;5149794;27;20043;-61
2023/03/04 02:27:31;;;;;;;11.45;1.90;;;;;;;;;;5157043;27;20047;-63
2023/03/04 02:29:58;;;;;;;13.77;1.88;;;;;;;;;;5147369;27;20054;-63
2023/03/04 02:32:24;;;;;;;12.00;1.90;;;;;;;;;;5166297;27;20054;-63
2023/03/04 02:34:51;;;;;;;16.17;2.33;;;;;;;;;;5167495;27;20055;-61
2023/03/04 02:37:18;;;;;;;11.32;1.80;;;;;;;;;;5160862;27;20585;-61
2023/03/04 02:39:46;;;;;;;9.40;2.03;;;;;;;;;;5166982;27;20054;-63
2023/03/04 02:42:12;;;;;;;13.05;1.63;;;;;;;;;;5165386;27;20512;-62
2023/03/04 02:44:40;;;;;;;7.50;1.40;;;;;;;;;;5150268;27;20089;-62
2023/03/04 02:47:08;;;;;;;8.02;1.30;;;;;;;;;;5146737;27;20544;-63
2023/03/04 02:49:35;;;;;;;14.32;1.58;;;;;;;;;;5152148;27;20084;-62
2023/03/04 02:52:03;;;;;;;8.45;1.50;;;;;;;;;;5166644;27;20563;-60
2023/03/04 02:54:30;;;;;;;10.65;1.55;;;;;;;;;;5163715;27;20051;-63
2023/03/04 02:57:01;;;;;;;6.57;1.45;;;;;;;;;;5165794;27;20142;-61
2023/03/04 02:59:28;;;;;;;8.40;1.30;;;;;;;;;;5155253;27;20517;-62
2023/03/04 03:01:55;;;;;;;12.68;2.10;;;;;;;;;;5162852;27;20043;-62
2023/03/04 03:04:22;;;;;;;10.75;1.75;;;;;;;;;;5147759;27;20082;-62
2023/03/04 03:06:48;;;;;;;15.95;2.20;;;;;;;;;;5146721;27;20047;-63
2023/03/04 03:09:15;;;;;;;9.77;1.40;;;;;;;;;;5161884;27;20055;-62
2023/03/04 03:11:41;;;;;;;14.40;1.58;;;;;;;;;;5157171;27;20094;-60
2023/03/04 03:14:08;;;;;;;13.40;1.80;;;;;;;;;;5150201;27;20542;-62
2023/03/04 03:16:34;;;;;;;4.63;1.33;;;;;;;;;;5150691;27;20050;-62
2023/03/04 03:19:01;;;;;;;13.70;1.70;;;;;;;;;;5156079;27;20047;-61
2023/03/04 03:21:27;;;;;;;8.77;1.58;;;;;;;;;;5155135;27;20052;-63
2023/03/04 03:23:53;;;;;;;6.90;1.65;;;;;;;;;;5160307;27;20100;-63
2023/03/04 03:26:20;;;;;;;8.98;1.35;;;;;;;;;;5153011;27;20491;-63
2023/03/04 03:28:46;;;;;;;10.38;1.38;;;;;;;;;;5145109;27;20058;-61
2023/03/04 03:31:13;;;;;;;12.85;2.05;;;;;;;;;;5144912;27;20495;-63
2023/03/04 03:33:39;;;;;;;5.88;1.05;;;;;;;;;;5165152;27;20204;-62
2023/03/04 03:36:06;;;;;;;10.80;1.80;;;;;;;;;;5162473;27;20515;-62
2023/03/04 03:38:33;;;;;;;8.77;1.63;;;;;;;;;;5151959;27;20061;-61
2023/03/04 03:41:00;;;;;;;5.45;1.30;;;;;;;;;;5149134;27;20051;-63
2023/03/04 03:43:27;;;;;;;4.97;1.55;;;;;;;;;;5157460;27;20466;-64
2023/03/04 03:45:53;;;;;;;15.85;1.67;;;;;;;;;;5165310;27;20091;-61
2023/03/04 03:48:19;;;;;;;7.97;1.75;;;;;;;;;;5163714;27;20549;-62
2023/03/04 03:50:46;;;;;;;6.07;1.30;;;;;;;;;;5174394;27;20129;-61
2023/03/04 03:53:12;;;;;;;6.50;1.48;;;;;;;;;;5170161;27;20057;-61
2023/03/04 03:55:39;;;;;;;7.03;1.50;;;;;;;;;;5156349;27;20051;-61
2023/03/04 03:58:05;;;;;;;6.95;2.22;;;;;;;;;;5158865;27;20050;-63
2023/03/04 04:00:32;;;;;;;13.25;1.98;;;;;;;;;;5155278;27;20108;-60
2023/03/04 04:02:59;;;;;;;4.97;1.45;;;;;;;;;;5158375;27;20047;-62
2023/03/04 04:05:26;;;;;;;12.45;1.52;;;;;;;;;;5149375;27;20047;-61
2023/03/04 04:07:52;;;;;;;14.90;1.65;;;;;;;;;;5150027;27;20446;-61
2023/03/04 04:10:20;;;;;;;8.55;2.00;;;;;;;;;;5138994;27;20070;-63
2023/03/04 04:12:46;;;;;;;7.72;1.50;;;;;;;;;;5161786;27;20046;-63
2023/03/04 04:15:13;;;;;;;10.02;1.10;;;;;;;;;;5149940;27;20626;-61
2023/03/04 04:17:39;;;;;;;8.55;1.42;;;;;;;;;;5152407;27;20588;-61
2023/03/04 04:20:06;;;;;;;5.32;1.27;;;;;;;;;;5163711;27;20131;-63
2023/03/04 04:22:33;;;;;;;6.95;1.17;;;;;;;;;;5152630;27;20134;-61
2023/03/04 04:24:59;;;;;;;7.35;1.20;;;;;;;;;;5162488;27;20142;-60
2023/03/04 04:27:25;;;;;;;9.27;1.30;;;;;;;;;;5146526;27;20545;-62
2023/03/04 04:29:52;;;;;;;7.68;0.95;;;;;;;;;;5164301;27;20080;-61
2023/03/04 04:32:18;;;;;;;6.10;1.08;;;;;;;;;;5162921;27;20600;-60
2023/03/04 04:34:44;;;;;;;6.93;1.83;;;;;;;;;;5165531;27;20500;-61
2023/03/04 04:37:11;;;;;;;6.78;1.27;;;;;;;;;;5155113;27;20054;-62
2023/03/04 04:39:37;;;;;;;6.18;1.40;;;;;;;;;;5164341;27;20052;-61
2023/03/04 04:42:04;;;;;;;7.50;1.40;;;;;;;;;;5165101;27;20047;-62
2023/03/04 04:44:30;;;;;;;7.47;1.65;;;;;;;;;;5165609;27;20853;-63
2023/03/04 04:46:57;;;;;;;7.95;1.00;;;;;;;;;;5145989;27;20635;-62
2023/03/04 04:49:23;;;;;;;8.73;1.58;;;;;;;;;;5152837;27;20047;-62
2023/03/04 04:51:49;;;;;;;7.68;1.38;;;;;;;;;;5149223;27;20598;-61
2023/03/04 04:54:16;;;;;;;5.07;1.02;;;;;;;;;;5144153;27;20087;-60
2023/03/04 04:56:42;;;;;;;9.73;1.73;;;;;;;;;;5138095;27;20476;-63
2023/03/04 04:59:08;;;;;;;9.32;1.60;;;;;;;;;;5166542;27;20062;-60
2023/03/04 05:01:35;;;;;;;11.07;1.88;;;;;;;;;;5164377;27;20047;-62
2023/03/04 05:04:02;;;;;;;4.85;1.70;;;;;;;;;;5148127;27;20062;-63
2023/03/04 05:06:28;;;;;;;4.70;1.15;;;;;;;;;;5147919;27;20050;-63
2023/03/04 05:08:54;;;;;;;7.78;1.83;;;;;;;;;;5146560;27;20570;-61
2023/03/04 05:11:21;;;;;;;7.00;1.95;;;;;;;;;;5154263;27;20126;-62
2023/03/04 05:13:47;;;;;;;4.97;1.08;;;;;;;;;;5149243;27;20059;-62
2023/03/04 05:16:15;;;;;;;6.63;1.58;;;;;;;;;;5132046;27;20503;-62
2023/03/04 05:18:41;;;;;;;8.48;1.40;;;;;;;;;;5165155;27;20100;-61
2023/03/04 05:21:08;;;;;;;7.18;1.20;;;;;;;;;;5141761;27;20150;-60
2023/03/04 05:23:36;;;;;;;6.65;1.20;;;;;;;;;;5150687;27;20055;-63
2023/03/04 05:26:03;;;;;;;8.68;1.90;;;;;;;;;;5164183;27;20078;-63
2023/03/04 05:28:30;;;;;;;6.85;1.10;;;;;;;;;;5164665;27;20053;-62
2023/03/04 05:30:56;;;;;;;9.43;1.85;;;;;;;;;;5153512;27;20086;-63
2023/03/04 05:33:23;;;;;;;7.00;2.08;;;;;;;;;;5143459;27;20047;-61
2023/03/04 05:35:49;;;;;;;7.47;1.20;;;;;;;;;;5145401;27;20532;-61
2023/03/04 05:38:17;;;;;;;6.47;1.30;;;;;;;;;;5163319;27;20047;-63
2023/03/04 05:40:44;;;;;;;7.15;1.60;;;;;;;;;;5162920;27;20514;-62
2023/03/04 05:43:10;;;;;;;9.10;2.00;;;;;;;;;;5163864;27;20061;-62
2023/03/04 05:45:37;;;;;;;6.00;1.40;;;;;;;;;;5156202;27;20047;-61
2023/03/04 05:48:04;;;;;;;10.60;1.98;;;;;;;;;;5145885;27;20057;-61
2023/03/04 05:50:31;;;;;;;4.60;1.63;;;;;;;;;;5165412;27;20081;-63
2023/03/04 05:52:57;;;;;;;7.50;1.45;;;;;;;;;;5157855;27;20047;-62
2023/03/04 05:55:25;;;;;;;4.32;1.30;;;;;;;;;;5155022;27;20062;-61
2023/03/04 05:57:52;;;;;;;7.32;2.10;;;;;;;;;;5150968;27;20370;-62
2023/03/04 06:00:18;;;;;;;7.22;1.40;;;;;;;;;;5126357;27;20055;-61
2023/03/04 06:02:45;;;;;;;10.07;1.38;;;;;;;;;;5162913;27;20054;-61
2023/03/04 06:05:12;;;;;;;6.30;1.42;;;;;;;;;;5165691;27;20047;-63
2023/03/04 06:07:39;;;;;;;9.30;1.48;;;;;;;;;;5152590;27;20051;-61
2023/03/04 06:10:06;;;;;;;9.60;2.38;;;;;;;;;;5167891;27;20051;-63
2023/03/04 06:12:32;;;;;;;17.92;2.22;;;;;;;;;;5161546;27;20153;-63
2023/03/04 06:14:59;;;;;;;9.52;1.77;;;;;;;;;;5158557;27;20055;-61
2023/03/04 06:17:25;;;;;;;8.60;1.70;;;;;;;;;;5159424;27;20065;-62
2023/03/04 06:19:52;;;;;;;7.40;1.90;;;;;;;;;;5163807;27;20598;-61
2023/03/04 06:22:18;;;;;;;6.30;1.42;;;;;;;;;;5159422;27;20526;-61
2023/03/04 06:24:44;;;;;;;5.88;1.13;;;;;;;;;;5166851;27;20047;-63
2023/03/04 06:27:12;;;;;;;4.93;1.17;;;;;;;;;;5167118;27;20058;-61
2023/03/04 06:29:38;;;;;;;8.10;1.90;;;;;;;;;;5166919;27;20518;-61
2023/03/04 06:32:05;;;;;;;5.18;1.00;;;;;;;;;;5162240;27;20042;-61
2023/03/04 06:34:32;;;;;;;9.20;1.40;;;;;;;;;;5147581;27;20054;-63
2023/03/04 06:36:59;;;;;;;5.38;1.20;;;;;;;;;;5157735;27;20138;-61
2023/03/04 06:39:25;;;;;;;9.15;2.22;;;;;;;;;;5148273;27;20516;-62
2023/03/04 06:41:52;;;;;;;15.18;2.75;;;;;;;;;;5152484;27;20058;-61
2023/03/04 06:44:18;;;;;;;8.05;1.88;;;;;;;;;;5166269;27;20573;-61
2023/03/04 06:46:44;;;;;;;14.55;1.85;;;;;;;;;;5157034;27;20138;-61
2023/03/04 06:49:11;;;;;;;6.68;1.50;;;;;;;;;;5161103;27;20061;-60
2023/03/04 06:51:37;;;;;;;18.90;2.22;;;;;;;;;;5157850;27;20566;-61
2023/03/04 06:54:03;;;;;;;6.82;2.50;;;;;;;;;;5148680;27;20047;-63
2023/03/04 06:56:30;;;;;;;7.97;1.70;;;;;;;;;;5169145;27;20051;-63
2023/03/04 06:58:57;;;;;;;7.22;0.98;;;;;;;;;;5157176;27;20055;-61
2023/03/04 07:01:25;;;;;;;12.23;1.70;;;;;;;;;;5164631;27;20045;-63
2023/03/04 07:03:51;;;;;;;8.63;1.60;;;;;;;;;;5149273;27;20054;-62
2023/03/04 07:06:19;;;;;;;11.27;2.33;;;;;;;;;;5152734;27;20186;-63
2023/03/04 07:08:45;;;;;;;9.20;3.88;;;;;;;;;;5147421;27;20516;-62
2023/03/04 07:11:11;;;;;;;3.75;1.38;;;;;;;;;;5154951;27;20116;-62
2023/03/04 07:13:38;;;;;;;4.07;1.15;;;;;;;;;;5156221;27;20053;-60
2023/03/04 07:16:05;;;;;;;7.57;1.45;;;;;;;;;;5156734;27;20047;-62
2023/03/04 07:18:32;;;;;;;7.65;1.70;;;;;;;;;;5152667;27;20493;-62
2023/03/04 07:20:58;;;;;;;5.63;1.83;;;;;;;;;;5150669;27;20062;-61
2023/03/04 07:23:25;;;;;;;7.13;1.80;;;;;;;;;;5157780;27;20086;-62
2023/03/04 07:25:51;;;;;;;7.60;1.70;;;;;;;;;;5164216;27;20174;-62
2023/03/04 07:28:18;;;;;;;5.40;1.02;;;;;;;;;;5146765;27;20039;-60
2023/03/04 07:30:44;;;;;;;7.63;1.67;;;;;;;;;;5165320;27;20049;-60
2023/03/04 07:33:10;;;;;;;6.88;1.33;;;;;;;;;;5151246;27;20983;-62
2023/03/04 07:35:37;;;;;;;8.02;1.13;;;;;;;;;;5144426;27;20053;-63
2023/03/04 07:38:03;;;;;;;2.67;0.80;;;;;;;;;;5162898;27;20051;-61
2023/03/04 07:40:29;;;;;;;3.97;1.15;;;;;;;;;;5157127;27;20130;-61
2023/03/04 07:42:56;;;;;;;8.10;2.28;;;;;;;;;;5162316;27;20055;-60
2023/03/04 07:45:22;;;;;;;4.70;1.50;;;;;;;;;;5157647;27;20050;-60
2023/03/04 07:47:49;;;;;;;3.55;1.55;;;;;;;;;;5160680;27;20148;-61
2023/03/04 07:50:15;;;;;;;7.20;1.48;;;;;;;;;;5147063;27;20055;-63
2023/03/04 07:52:44;;;;;;;6.15;1.30;;;;;;;;;;5153850;27;20583;-61
2023/03/04 07:55:12;;;;;;;1.63;1.35;;;;;;;;;;5155856;27;20588;-61
2023/03/04 07:57:42;;;;;;;8.45;1.50;;;;;;;;;;5163203;27;20058;-61
2023/03/04 08:00:10;;;;;;;8.27;1.45;;;;;;;;;;5132880;27;20044;-61
2023/03/04 08:02:36;;;;;;;5.10;1.80;;;;;;;;;;5163855;27;20043;-61
2023/03/04 08:05:03;;;;;;;13.63;2.58;;;;;;;;;;5165540;27;20484;-63
2023/03/04 08:07:29;;;;;;;15.93;2.20;;;;;;;;;;5161036;27;20047;-62
2023/03/04 08:09:55;;;;;;;17.88;2.22;;;;;;;;;;5161106;27;20401;-62
2023/03/04 08:12:23;;;;;;;5.95;1.42;;;;;;;;;;5151085;27;20163;-63
2023/03/04 08:14:50;;;;;;;10.25;1.52;;;;;;;;;;5155145;27;20042;-62
2023/03/04 08:17:16;;;;;;;7.53;1.67;;;;;;;;;;5157186;27;20055;-61
2023/03/04 08:19:43;;;;;;;5.93;1.80;;;;;;;;;;5165321;27;20811;-62
2023/03/04 08:22:09;;;;;;;7.38;1.80;;;;;;;;;;5137224;27;20624;-61
2023/03/04 08:24:36;;;;;;;7.25;2.90;;;;;;;;;;5148036;27;20105;-62
2023/03/04 08:27:02;;;;;;;5.35;1.30;;;;;;;;;;5144815;27;20047;-61
2023/03/04 08:29:29;;;;;;;6.72;1.30;;;;;;;;;;5160995;27;20043;-60
2023/03/04 08:31:56;;;;;;;1.60;1.17;;;;;;;;;;5163920;27;20522;-61
2023/03/04 08:34:24;;;;;;;12.68;1.50;;;;;;;;;;5145751;27;20051;-62
2023/03/04 08:36:51;;;;;;;5.88;1.38;;;;;;;;;;5149799;27;20437;-62
2023/03/04 08:39:17;;;;;;;3.50;1.38;;;;;;;;;;5153963;27;20043;-62
2023/03/04 08:41:44;;;;;;;2.45;0.82;;;;;;;;;;5155233;27;20753;-61
2023/03/04 08:44:11;;;;;;;4.65;1.10;;;;;;;;;;5150085;27;20160;-63
2023/03/04 08:46:39;;;;;;;3.28;1.40;;;;;;;;;;5150080;27;20058;-62
2023/03/04 08:49:05;;;;;;;2.78;0.98;;;;;;;;;;5160873;27;20050;-62
2023/03/04 08:51:34;;;;;;;1.40;0.90;;;;;;;;;;5159650;27;20050;-62
2023/03/04 08:54:02;;;;;;;5.40;1.08;;;;;;;;;;5151654;27;20050;-62
2023/03/04 08:56:29;;;;;;;9.10;1.70;;;;;;;;;;5154295;27;20051;-62
2023/03/04 08:58:56;;;;;;;1.70;0.70;;;;;;;;;;5157623;27;20513;-62
2023/03/04 09:01:22;;;;;;;4.75;1.02;;;;;;;;;;5161079;27;20169;-62
2023/03/04 09:03:48;;;;;;;2.40;0.82;;;;;;;;;;5156259;27;20137;-61
2023/03/04 09:06:15;;;;;;;2.72;1.17;;;;;;;;;;5164580;27;20051;-61
2023/03/04 09:08:42;;;;;;;2.28;1.13;;;;;;;;;;5159380;27;20058;-61
2023/03/04 09:11:09;;;;;;;1.35;0.80;;;;;;;;;;5164362;27;20589;-60
2023/03/04 09:13:35;;;;;;;5.15;1.40;;;;;;;;;;5152192;27;20108;-62
2023/03/04 09:16:02;;;;;;;5.10;1.23;;;;;;;;;;5152407;27;20551;-61
2023/03/04 09:18:29;;;;;;;2.28;0.95;;;;;;;;;;5155353;27;20078;-61
2023/03/04 09:20:55;;;;;;;4.18;0.90;;;;;;;;;;5148880;27;20100;-62
2023/03/04 09:23:22;;;;;;;5.05;0.90;;;;;;;;;;5147161;27;20210;-63
2023/03/04 09:25:48;;;;;;;5.80;1.98;;;;;;;;;;5149260;27;20043;-62
2023/03/04 09:28:15;;;;;;;2.50;1.00;;;;;;;;;;5160834;27;20051;-61
2023/03/04 09:30:42;;;;;;;3.85;1.10;;;;;;;;;;5156803;27;20125;-61
2023/03/04 09:33:09;;;;;;;3.38;0.70;;;;;;;;;;5145991;27;20509;-62
2023/03/04 09:35:35;;;;;;;1.55;0.82;;;;;;;;;;5144264;27;20508;-62
2023/03/04 09:38:02;;;;;;;2.10;1.10;;;;;;;;;;5156099;27;20161;-61
2023/03/04 09:40:31;;;;;;;3.97;1.00;;;;;;;;;;5164375;27;20171;-62
2023/03/04 09:43:02;;;;;;;4.90;1.08;;;;;;;;;;5158109;27;20475;-62
2023/03/04 09:45:33;;;;;;;2.05;1.00;;;;;;;;;;5151724;27;20535;-62
2023/03/04 09:48:00;;;;;;;3.78;1.02;;;;;;;;;;5150429;27;20609;-61
2023/03/04 09:50:30;;;;;;;1.38;0.73;;;;;;;;;;5160758;27;20051;-61
2023/03/04 09:53:01;;;;;;;1.33;0.80;;;;;;;;;;5159853;27;20480;-62
2023/03/04 09:55:36;;;;;;;5.38;0.90;;;;;;;;;;5139291;27;20503;-61
2023/03/04 09:58:21;;;;;;;5.20;0.95;;;;;;;;;;5163130;27;20061;-62
2023/03/04 10:00:54;;;;;;;4.78;1.35;;;;;;;;;;5166164;27;20571;-61
2023/03/04 10:03:24;;;;;;;2.10;1.08;;;;;;;;;;5163731;27;20054;-62
2023/03/04 10:06:10;;;;;;;6.63;1.15;;;;;;;;;;5166299;27;20403;-62
2023/03/04 10:08:45;;;;;;;4.82;1.20;;;;;;;;;;5160037;27;20330;-63
2023/03/04 10:11:12;;;;;;;;;;;;;;;;;;5152891;27;20059;-63
2023/03/04 10:13:41;;;;;;;5.57;1.25;;;;;;;;;;5152585;27;46948;-62
2023/03/04 10:16:10;;;;;;;4.30;1.08;;;;;;;;;;5155731;27;20078;-63
2023/03/04 10:18:40;;;;;;;2.33;0.85;;;;;;;;;;5154448;27;20043;-62
2023/03/04 10:21:14;;;;;;;3.28;0.93;;;;;;;;;;5159478;27;20077;-62
2023/03/04 10:23:41;;;;;;;5.43;0.95;;;;;;;;;;5157296;27;20134;-63
2023/03/04 10:26:14;;;;;;;1.55;0.77;;;;;;;;;;5147426;27;20081;-61
2023/03/04 10:28:40;;;;;;;4.43;1.00;;;;;;;;;;5133969;27;20512;-62
2023/03/04 10:31:07;;;;;;;3.92;0.90;;;;;;;;;;5153349;27;20476;-61
2023/03/04 10:33:34;;;;;;;6.22;1.42;;;;;;;;;;5157603;27;20055;-63
2023/03/04 10:36:20;;;;;;;6.53;2.00;;;;;;;;;;5167133;27;20420;-62
2023/03/04 10:38:47;;;;;;;6.22;1.38;;;;;;;;;;5151312;27;20051;-62
2023/03/04 10:41:15;;;;;;;1.70;1.00;;;;;;;;;;5152482;27;20046;-62
2023/03/04 10:43:45;;;;;;;1.25;0.60;;;;;;;;;;5157920;27;20043;-63
2023/03/04 10:46:12;;;;;;;2.70;0.80;;;;;;;;;;5149879;27;20130;-62
2023/03/04 10:48:39;;;;;;;1.63;0.80;;;;;;;;;;5164779;27;20129;-62
2023/03/04 10:51:11;;;;;;;2.20;0.80;;;;;;;;;;5163343;27;20576;-63
2023/03/04 10:53:39;;;;;;;4.10;1.10;;;;;;;;;;5157083;27;20413;-62
2023/03/04 10:56:24;;;;;;;3.05;0.90;;;;;;;;;;5146728;27;20051;-60
2023/03/04 10:58:51;;;;;;;1.30;0.73;;;;;;;;;;5160517;27;20062;-61
2023/03/04 11:01:24;;;;;;;4.07;0.95;;;;;;;;;;5154413;27;20042;-62
2023/03/04 11:03:51;;;;;;;4.65;1.13;;;;;;;;;;5163887;27;20047;-62
2023/03/04 11:06:21;;;;;;;1.55;0.70;;;;;;;;;;5159109;27;20043;-62
2023/03/04 11:08:55;;;;;;;4.38;1.00;;;;;;;;;;5158198;27;20058;-62
2023/03/04 11:11:30;;;;;;;2.13;0.85;;;;;;;;;;5154046;27;20142;-62
2023/03/04 11:13:58;;;;;;;1.55;0.77;;;;;;;;;;5158682;27;20051;-62
2023/03/04 11:16:27;;;;;;;3.70;0.90;;;;;;;;;;5149852;27;20054;-62
2023/03/04 11:18:55;;;;;;;4.45;1.05;;;;;;;;;;5147121;27;20122;-61
2023/03/04 11:21:23;;;;;;;1.60;1.13;;;;;;;;;;5160720;27;20209;-61
2023/03/04 11:23:55;;;;;;;3.13;0.93;;;;;;;;;;5150285;27;20505;-62
2023/03/04 11:26:25;;;;;;;4.10;1.02;;;;;;;;;;5161287;27;20161;-61
2023/03/04 11:28:54;;;;;;;3.08;0.80;;;;;;;;;;5158420;27;20082;-62
2023/03/04 11:31:31;;;;;;;3.50;1.02;;;;;;;;;;5153103;27;20064;-62
2023/03/04 11:34:03;;;;;;;4.35;1.00;;;;;;;;;;5156377;27;20138;-62
2023/03/04 11:36:48;;;;;;;5.93;1.40;;;;;;;;;;5146741;27;20058;-61
2023/03/04 11:39:26;;;;;;;10.05;1.63;;;;;;;;;;5153113;27;20055;-62
2023/03/04 11:41:55;;;;;;;5.40;1.00;;;;;;;;;;5149735;27;20051;-61
2023/03/04 11:44:21;;;;;;;2.65;1.00;;;;;;;;;;5157559;27;20137;-60
2023/03/04 11:46:54;;;;;;;5.63;1.35;;;;;;;;;;5156871;27;20057;-61
2023/03/04 11:49:32;;;;;;;7.43;1.73;;;;;;;;;;5165814;27;20051;-60
2023/03/04 11:51:59;;;;;;;6.78;1.23;;;;;;;;;;5152036;27;20528;-59
2023/03/04 11:54:34;;;;;;;5.50;1.20;;;;;;;;;;5153274;27;20047;-60
2023/03/04 11:57:20;;;;;;;5.22;1.15;;;;;;;;;;5146735;27;20489;-60
2023/03/04 12:00:05;;;;;;;3.70;1.42;;;;;;;;;;5153200;27;20138;-60
2023/03/04 12:02:50;;;;;;;3.83;1.00;;;;;;;;;;5147181;27;20053;-60
2023/03/04 12:05:21;;;;;;;7.60;1.50;;;;;;;;;;5150464;27;20051;-60
2023/03/04 12:07:55;;;;;;;13.02;1.42;;;;;;;;;;5144130;27;20055;-60
2023/03/04 12:10:32;;;;;;;11.07;1.50;;;;;;;;;;5150066;27;20192;-61
2023/03/04 12:13:04;;;;;;;7.20;1.13;;;;;;;;;;5145739;27;20047;-61
2023/03/04 12:15:49;;;;;;;12.02;2.03;;;;;;;;;;5144807;27;20043;-61
2023/03/04 12:18:34;;;;;;;10.90;1.88;;;;;;;;;;5153536;27;20523;-61
2023/03/04 12:21:03;;;;;;;11.60;1.40;;;;;;;;;;5132476;27;20043;-61
2023/03/04 12:23:30;;;;;;;7.68;1.38;;;;;;;;;;5164737;27;20086;-60
2023/03/04 12:26:01;;;;;;;12.85;3.30;;;;;;;;;;5160742;27;20061;-60
2023/03/04 12:28:34;;;;;;;7.43;1.58;;;;;;;;;;5165378;27;20047;-60
2023/03/04 12:31:15;;;;;;;5.53;1.70;;;;;;;;;;5165303;27;20051;-61
2023/03/04 12:34:04;;;;;;;19.77;3.30;;;;;;;;;;5158913;27;20050;-60
2023/03/04 12:36:30;;;;;;;5.43;0.90;;;;;;;;;;5162449;27;20111;-59
2023/03/04 12:38:57;;;;;;;13.05;1.58;;;;;;;;;;5150371;27;20047;-60
2023/03/04 12:41:40;;;;;;;10.00;1.50;;;;;;;;;;5150808;27;20996;-61
2023/03/04 12:44:18;;;;;;;10.85;1.52;;;;;;;;;;5147199;27;20505;-61
2023/03/04 12:47:05;;;;;;;3.63;1.10;;;;;;;;;;5144282;27;20057;-60
2023/03/04 12:49:52;;;;;;;8.57;1.50;;;;;;;;;;5149250;27;20139;-60
2023/03/04 12:52:39;;;;;;;18.23;2.03;;;;;;;;;;5148066;27;20039;-60
2023/03/04 12:55:11;;;;;;;10.68;2.03;;;;;;;;;;5144402;27;20440;-60
2023/03/04 12:57:39;;;;;;;10.02;2.35;;;;;;;;;;5144719;27;20531;-60
2023/03/04 13:00:11;;;;;;;6.72;1.60;;;;;;;;;;5150436;27;20054;-61
2023/03/04 13:02:40;;;;;;;14.73;2.17;;;;;;;;;;5149128;27;20070;-60
2023/03/04 13:05:26;;;;;;;15.95;1.80;;;;;;;;;;5155051;27;20039;-60
2023/03/04 13:07:56;;;;;;;16.27;2.80;;;;;;;;;;5146626;27;20059;-60
2023/03/04 13:10:22;;;;;;;9.65;1.83;;;;;;;;;;5146576;27;20083;-60
2023/03/04 13:12:50;;;;;;;9.18;1.40;;;;;;;;;;5150757;27;20047;-59
2023/03/04 13:15:25;;;;;;;8.18;1.60;;;;;;;;;;5144367;27;20047;-61
2023/03/04 13:17:53;;;;;;;13.23;2.70;;;;;;;;;;5162444;27;20595;-60
2023/03/04 13:20:28;;;;;;;7.22;1.95;;;;;;;;;;5162936;27;20268;-60
2023/03/04 13:23:03;;;;;;;10.02;1.60;;;;;;;;;;5153407;27;20129;-60
2023/03/04 13:25:34;;;;;;;19.93;1.83;;;;;;;;;;5156269;27;20054;-60
2023/03/04 13:28:01;;;;;;;7.47;1.85;;;;;;;;;;5158177;27;20376;-61
2023/03/04 13:30:32;;;;;;;17.33;3.20;;;;;;;;;;5150211;27;20677;-59
2023/03/04 13:33:07;;;;;;;14.23;1.90;;;;;;;;;;5144978;27;20047;-62
2023/03/04 13:38:29;;;;;;;8.63;1.55;;;;;;;;;;5157404;27;20141;-61
2023/03/04 13:40:58;;;;;;;10.80;1.63;;;;;;;;;;5146346;27;20187;-62
2023/03/04 13:43:45;;;;;;;8.57;1.50;;;;;;;;;;5148521;27;20066;-62
2023/03/04 13:46:17;;;;;;;9.48;1.50;;;;;;;;;;5141104;27;20695;-62
2023/03/04 13:48:47;;;;;;;10.20;1.98;;;;;;;;;;5153545;27;20051;-63
2023/03/04 13:51:15;;;;;;;6.55;1.33;;;;;;;;;;5143861;27;20100;-63
2023/03/04 13:53:54;;;;;;;11.45;2.78;;;;;;;;;;5155512;27;20314;-62
2023/03/04 13:56:23;;;;;;;7.75;1.20;;;;;;;;;;5141979;27;20588;-62
2023/03/04 13:58:52;;;;;;;10.57;1.27;;;;;;;;;;5148228;27;20050;-62
2023/03/04 14:01:23;;;;;;;6.53;0.95;;;;;;;;;;5152062;27;20501;-62
2023/03/04 14:03:49;;;;;;;2.22;1.00;;;;;;;;;;5159313;27;20055;-62
2023/03/04 14:06:24;;;;;;;8.30;1.35;;;;;;;;;;5153657;27;20137;-62
2023/03/04 14:08:51;;;;;;;10.77;1.48;;;;;;;;;;5112964;27;20052;-63
2023/03/04 14:11:31;;;;;;;6.97;1.70;;;;;;;;;;5106933;27;20069;-62
2023/03/04 14:13:59;;;;;;;7.30;1.73;;;;;;;;;;5111070;27;20044;-63
2023/03/04 14:16:27;;;;;;;5.07;0.93;;;;;;;;;;5101375;27;20702;-62
2023/03/04 14:18:58;;;;;;;3.67;1.02;;;;;;;;;;5106087;27;20052;-63
2023/03/04 14:21:24;;;;;;;6.32;0.70;;;;;;;;;;5112414;27;20138;-63
2023/03/04 14:24:01;;;;;;;7.28;0.95;;;;;;;;;;5115998;27;20173;-62
2023/03/04 14:26:29;;;;;;;3.05;0.82;;;;;;;;;;5111994;27;20402;-62
2023/03/04 14:28:58;;;;;;;3.20;1.25;;;;;;;;;;5108830;27;20044;-63
2023/03/04 14:31:28;;;;;;;4.53;1.10;;;;;;;;;;5111537;27;20678;-63
2023/03/04 14:34:00;;;;;;;6.53;1.10;;;;;;;;;;5119529;27;20055;-62
2023/03/04 14:36:30;;;;;;;4.30;1.35;;;;;;;;;;5116979;27;20052;-63
2023/03/04 14:39:01;;;;;;;6.22;1.05;;;;;;;;;;5104518;27;20171;-63
2023/03/04 14:41:30;;;;;;;3.85;0.68;;;;;;;;;;5104144;27;20541;-63
2023/03/04 14:44:07;;;;;;;2.95;1.00;;;;;;;;;;5103605;27;20052;-62
2023/03/04 14:46:36;;;;;;;3.42;0.80;;;;;;;;;;5115581;27;20051;-63
2023/03/04 14:49:03;;;;;;;6.63;1.17;;;;;;;;;;5120257;27;20501;-62